createdAt,value
2023-07-16T00:03:44.046Z,0.00
2023-07-16T00:08:44.038Z,0.00
2023-07-16T00:13:46.977Z,0.00
2023-07-16T00:18:43.842Z,0.00
2023-07-16T00:23:44.004Z,0.00
2023-07-16T00:28:43.689Z,0.00
2023-07-16T00:33:43.720Z,0.00
2023-07-16T00:38:43.634Z,0.00
2023-07-16T00:43:43.561Z,0.00
2023-07-16T00:48:43.399Z,0.00
2023-07-16T00:53:43.437Z,0.00
2023-07-16T00:58:43.263Z,0.00
2023-07-16T01:03:43.297Z,0.00
2023-07-16T01:08:43.147Z,0.00
2023-07-16T01:13:46.119Z,0.00
2023-07-16T01:18:43.029Z,0.00
2023-07-16T01:23:43.025Z,0.00
2023-07-16T01:28:42.896Z,0.00
2023-07-16T01:33:43.409Z,0.00
2023-07-16T01:38:42.745Z,0.00
2023-07-16T01:43:42.763Z,0.00
2023-07-16T01:48:42.596Z,0.00
2023-07-16T01:53:42.610Z,0.00
2023-07-16T01:58:42.499Z,0.00
2023-07-16T02:03:42.539Z,0.00
2023-07-16T02:08:42.315Z,0.00
2023-07-16T02:13:45.344Z,0.00
2023-07-16T02:18:42.193Z,0.00
2023-07-16T02:23:42.189Z,0.00
2023-07-16T02:28:42.074Z,0.00
2023-07-16T02:33:42.050Z,0.00
2023-07-16T02:38:41.938Z,0.00
2023-07-16T02:43:42.284Z,0.00
2023-07-16T02:48:41.796Z,0.00
2023-07-16T02:53:41.785Z,0.00
2023-07-16T02:58:41.663Z,0.00
2023-07-16T03:03:41.658Z,0.00
2023-07-16T03:08:41.562Z,0.00
2023-07-16T03:13:44.518Z,0.00
2023-07-16T03:18:41.384Z,0.00
2023-07-16T03:23:41.380Z,0.00
2023-07-16T03:28:41.278Z,5.62
2023-07-16T03:33:41.269Z,11.25
2023-07-16T03:38:41.126Z,22.50
2023-07-16T03:43:41.143Z,33.75
2023-07-16T03:48:41.073Z,33.75
2023-07-16T03:53:41.228Z,39.38
2023-07-16T03:58:40.893Z,73.12
2023-07-16T04:03:40.877Z,112.50
2023-07-16T04:08:40.704Z,140.62
2023-07-16T04:13:43.689Z,90.00
2023-07-16T04:18:40.640Z,67.50
2023-07-16T04:23:40.568Z,84.38
2023-07-16T04:28:40.484Z,106.88
2023-07-16T04:33:40.583Z,118.12
2023-07-16T04:38:40.353Z,106.88
2023-07-16T04:43:40.393Z,112.50
2023-07-16T04:48:40.262Z,135.00
2023-07-16T04:53:40.222Z,185.62
2023-07-16T04:58:40.079Z,348.75
2023-07-16T05:03:40.259Z,421.88
2023-07-16T05:08:39.986Z,495.00
2023-07-16T05:13:42.889Z,399.38
2023-07-16T05:18:39.879Z,1029.38
2023-07-16T05:23:39.778Z,1136.25
2023-07-16T05:28:39.694Z,1276.88
2023-07-16T05:33:39.761Z,1541.25
2023-07-16T05:38:39.574Z,624.38
2023-07-16T05:43:39.520Z,1777.50
2023-07-16T05:48:39.437Z,973.12
2023-07-16T05:53:39.417Z,1749.38
2023-07-16T05:58:39.270Z,1783.12
2023-07-16T06:03:39.350Z,1687.50
2023-07-16T06:08:39.178Z,613.12
2023-07-16T06:13:42.130Z,1783.12
2023-07-16T06:18:39.045Z,1873.12
2023-07-16T06:23:39.179Z,2137.50
2023-07-16T06:28:38.905Z,748.12
2023-07-16T06:33:38.927Z,2131.88
2023-07-16T06:38:38.777Z,1085.62
2023-07-16T06:43:38.721Z,2424.38
2023-07-16T06:48:38.670Z,2413.12
2023-07-16T06:53:38.657Z,2379.38
2023-07-16T06:58:38.574Z,2503.12
2023-07-16T07:03:38.649Z,2508.75
2023-07-16T07:08:38.432Z,2688.75
2023-07-16T07:13:41.780Z,2660.62
2023-07-16T07:18:38.308Z,2598.75
2023-07-16T07:23:38.246Z,511.88
2023-07-16T07:28:38.176Z,596.25
2023-07-16T07:33:38.110Z,2880.00
2023-07-16T07:38:38.034Z,2660.62
2023-07-16T07:43:37.971Z,2666.25
2023-07-16T07:48:37.967Z,2626.88
2023-07-16T07:53:37.866Z,2908.12
2023-07-16T07:58:37.767Z,2536.88
2023-07-16T08:03:37.995Z,3048.75
2023-07-16T08:08:37.631Z,675.00
2023-07-16T08:13:48.231Z,973.12
2023-07-16T08:18:37.494Z,528.75
2023-07-16T08:23:46.234Z,573.75
2023-07-16T08:28:37.371Z,720.00
2023-07-16T08:33:37.392Z,3161.25
2023-07-16T08:38:37.317Z,3571.88
2023-07-16T08:43:37.247Z,731.25
2023-07-16T08:48:37.149Z,641.25
2023-07-16T08:53:37.107Z,545.62
2023-07-16T08:58:37.001Z,506.25
2023-07-16T09:03:36.967Z,483.75
2023-07-16T09:08:36.892Z,624.38
2023-07-16T09:13:39.882Z,444.38
2023-07-16T09:18:36.808Z,545.62
2023-07-16T09:23:36.809Z,607.50
2023-07-16T09:28:36.658Z,748.12
2023-07-16T09:33:36.591Z,624.38
2023-07-16T09:38:36.511Z,483.75
2023-07-16T09:43:36.440Z,433.12
2023-07-16T09:48:36.369Z,540.00
2023-07-16T09:53:36.385Z,421.88
2023-07-16T09:58:36.239Z,410.62
2023-07-16T10:03:36.197Z,517.50
2023-07-16T10:08:36.142Z,388.12
2023-07-16T10:13:39.179Z,506.25
2023-07-16T10:18:36.037Z,388.12
2023-07-16T10:23:35.976Z,354.38
2023-07-16T10:28:35.914Z,371.25
2023-07-16T10:33:36.186Z,500.62
2023-07-16T10:38:35.762Z,382.50
2023-07-16T10:43:35.747Z,399.38
2023-07-16T10:48:35.573Z,388.12
2023-07-16T10:53:35.590Z,309.38
2023-07-16T10:58:35.651Z,326.25
2023-07-16T11:03:35.638Z,354.38
2023-07-16T11:08:35.302Z,433.12
2023-07-16T11:13:38.364Z,393.75
2023-07-16T11:18:35.186Z,348.75
2023-07-16T11:23:35.235Z,478.12
2023-07-16T11:28:35.069Z,461.25
2023-07-16T11:33:35.101Z,433.12
2023-07-16T11:38:34.926Z,489.38
2023-07-16T11:43:34.993Z,421.88
2023-07-16T11:48:34.802Z,523.12
2023-07-16T11:53:37.104Z,500.62
2023-07-16T11:58:34.774Z,427.50
2023-07-16T12:03:34.711Z,500.62
2023-07-16T12:08:34.504Z,506.25
2023-07-16T12:13:37.502Z,388.12
2023-07-16T12:18:34.442Z,371.25
2023-07-16T12:23:34.341Z,545.62
2023-07-16T12:28:34.247Z,466.88
2023-07-16T12:33:34.197Z,489.38
2023-07-16T12:38:34.079Z,331.88
2023-07-16T12:43:35.863Z,303.75
2023-07-16T12:48:33.987Z,281.25
2023-07-16T12:53:34.274Z,343.12
2023-07-16T12:58:33.860Z,309.38
2023-07-16T13:03:33.897Z,281.25
2023-07-16T13:08:33.841Z,309.38
2023-07-16T13:13:36.748Z,292.50
2023-07-16T13:18:33.590Z,326.25
2023-07-16T13:23:33.552Z,360.00
2023-07-16T13:28:33.463Z,399.38
2023-07-16T13:33:33.438Z,320.62
2023-07-16T13:38:33.360Z,303.75
2023-07-16T13:43:33.280Z,331.88
2023-07-16T13:48:44.067Z,405.00
2023-07-16T13:53:34.273Z,343.12
2023-07-16T13:58:33.044Z,326.25
2023-07-16T14:03:33.152Z,337.50
2023-07-16T14:08:32.892Z,303.75
2023-07-16T14:13:35.882Z,523.12
2023-07-16T14:18:32.774Z,343.12
2023-07-16T14:23:32.801Z,421.88
2023-07-16T14:28:32.673Z,427.50
2023-07-16T14:33:32.653Z,495.00
2023-07-16T14:38:32.538Z,348.75
2023-07-16T14:43:32.613Z,450.00
2023-07-16T14:48:32.476Z,579.38
2023-07-16T14:53:32.481Z,568.12
2023-07-16T14:58:32.364Z,607.50
2023-07-16T15:03:32.410Z,618.75
2023-07-16T15:08:32.183Z,613.12
2023-07-16T15:13:35.177Z,348.75
2023-07-16T15:18:32.048Z,596.25
2023-07-16T15:23:32.059Z,573.75
2023-07-16T15:28:31.928Z,624.38
2023-07-16T15:33:31.929Z,686.25
2023-07-16T15:38:31.811Z,579.38
2023-07-16T15:43:31.804Z,573.75
2023-07-16T15:48:32.663Z,601.88
2023-07-16T15:53:31.599Z,652.50
2023-07-16T15:58:31.539Z,495.00
2023-07-16T16:03:31.888Z,303.75
2023-07-16T16:08:31.353Z,264.38
2023-07-16T16:13:34.348Z,258.75
2023-07-16T16:18:31.453Z,281.25
2023-07-16T16:23:31.194Z,275.62
2023-07-16T16:28:31.093Z,326.25
2023-07-16T16:33:31.059Z,348.75
2023-07-16T16:38:30.967Z,292.50
2023-07-16T16:43:30.934Z,270.00
2023-07-16T16:48:30.849Z,275.62
2023-07-16T16:53:30.788Z,253.12
2023-07-16T16:58:39.493Z,225.00
2023-07-16T17:03:37.767Z,219.38
2023-07-16T17:08:30.966Z,219.38
2023-07-16T17:13:33.552Z,253.12
2023-07-16T17:18:30.532Z,247.50
2023-07-16T17:23:30.380Z,219.38
2023-07-16T17:28:30.270Z,208.12
2023-07-16T17:33:30.268Z,196.88
2023-07-16T17:38:30.144Z,185.62
2023-07-16T17:43:32.744Z,180.00
2023-07-16T17:48:32.689Z,163.12
2023-07-16T17:53:29.997Z,157.50
2023-07-16T17:58:29.880Z,157.50
2023-07-16T18:03:30.011Z,146.25
2023-07-16T18:08:29.737Z,140.62
2023-07-16T18:13:32.840Z,123.75
2023-07-16T18:18:29.629Z,112.50
2023-07-16T18:23:29.638Z,101.25
2023-07-16T18:28:29.519Z,90.00
2023-07-16T18:33:29.497Z,84.38
2023-07-16T18:38:29.389Z,73.12
2023-07-16T18:43:29.366Z,67.50
2023-07-16T18:48:29.244Z,56.25
2023-07-16T18:53:29.955Z,50.62
2023-07-16T18:58:29.124Z,39.38
2023-07-16T19:03:29.179Z,33.75
2023-07-16T19:08:29.004Z,22.50
2023-07-16T19:13:31.948Z,16.88
2023-07-16T19:18:28.923Z,11.25
2023-07-16T19:23:28.900Z,5.62
2023-07-16T19:28:28.725Z,5.62
2023-07-16T19:33:28.675Z,0.00
2023-07-16T19:38:28.558Z,0.00
2023-07-16T19:43:28.527Z,0.00
2023-07-16T19:48:28.432Z,0.00
2023-07-16T19:53:28.416Z,0.00
2023-07-16T19:58:28.304Z,0.00
2023-07-16T20:03:28.263Z,0.00
2023-07-16T20:08:28.177Z,0.00
2023-07-16T20:13:32.038Z,0.00
2023-07-16T20:18:28.036Z,0.00
2023-07-16T20:23:28.043Z,0.00
2023-07-16T20:28:27.900Z,0.00
2023-07-16T20:33:28.000Z,0.00
2023-07-16T20:38:27.802Z,0.00
2023-07-16T20:43:27.750Z,0.00
2023-07-16T20:48:27.730Z,0.00
2023-07-16T20:53:27.665Z,0.00
2023-07-16T20:58:27.541Z,0.00
2023-07-16T21:03:27.618Z,0.00
2023-07-16T21:08:27.357Z,0.00
2023-07-16T21:13:30.428Z,0.00
2023-07-16T21:18:27.248Z,0.00
2023-07-16T21:23:27.233Z,0.00
2023-07-16T21:28:27.106Z,0.00
2023-07-16T21:33:27.155Z,0.00
2023-07-16T21:38:26.974Z,0.00
2023-07-16T21:43:27.220Z,0.00
2023-07-16T21:48:26.848Z,0.00
2023-07-16T21:53:26.826Z,0.00
2023-07-16T21:58:26.715Z,0.00
2023-07-16T22:03:26.689Z,0.00
2023-07-16T22:08:26.576Z,0.00
2023-07-16T22:13:29.607Z,0.00
2023-07-16T22:18:26.471Z,0.00
2023-07-16T22:23:26.448Z,0.00
2023-07-16T22:28:26.301Z,0.00
2023-07-16T22:33:26.335Z,0.00
2023-07-16T22:38:26.172Z,0.00
2023-07-16T22:43:26.178Z,0.00
2023-07-16T22:48:26.038Z,0.00
2023-07-16T22:53:26.277Z,0.00
2023-07-16T22:58:25.884Z,0.00
2023-07-16T23:03:26.028Z,0.00
2023-07-16T23:08:25.848Z,0.00
2023-07-16T23:13:28.778Z,0.00
2023-07-16T23:18:25.662Z,0.00
2023-07-16T23:23:25.664Z,0.00
2023-07-16T23:28:25.541Z,0.00
2023-07-16T23:33:25.548Z,0.00
2023-07-16T23:38:25.363Z,0.00
2023-07-16T23:43:25.318Z,0.00
2023-07-16T23:48:25.203Z,0.00
2023-07-16T23:53:25.304Z,0.00
2023-07-16T23:58:25.162Z,0.00
